sensor_id;sensor_type;location;lat;lon;timestamp;P1;durP1;ratioP1;P2;durP2;ratioP2
43861;SDS011;29510;52.140;5.034;2022-11-21T00:08:33;23.85;;;13.30;;
43861;SDS011;29510;52.140;5.034;2022-11-21T00:18:34;26.80;;;14.05;;
43861;SDS011;29510;52.140;5.034;2022-11-21T00:28:35;28.13;;;14.98;;
43861;SDS011;29510;52.140;5.034;2022-11-21T00:38:37;22.55;;;12.05;;
43861;SDS011;29510;52.140;5.034;2022-11-21T00:48:38;25.85;;;14.55;;
43861;SDS011;29510;52.140;5.034;2022-11-21T00:58:39;27.80;;;13.32;;
43861;SDS011;29510;52.140;5.034;2022-11-21T01:08:41;22.25;;;12.13;;
43861;SDS011;29510;52.140;5.034;2022-11-21T01:18:43;27.15;;;14.32;;
43861;SDS011;29510;52.140;5.034;2022-11-21T01:28:45;24.60;;;14.25;;
43861;SDS011;29510;52.140;5.034;2022-11-21T01:38:47;26.73;;;12.73;;
43861;SDS011;29510;52.140;5.034;2022-11-21T01:58:54;29.42;;;14.82;;
43861;SDS011;29510;52.140;5.034;2022-11-21T02:08:58;24.55;;;12.30;;
43861;SDS011;29510;52.140;5.034;2022-11-21T02:19:00;27.95;;;13.48;;
43861;SDS011;29510;52.140;5.034;2022-11-21T02:29:01;26.50;;;12.13;;
43861;SDS011;29510;52.140;5.034;2022-11-21T02:39:02;27.98;;;14.90;;
43861;SDS011;29510;52.140;5.034;2022-11-21T02:49:06;25.73;;;14.07;;
43861;SDS011;29510;52.140;5.034;2022-11-21T02:59:08;24.38;;;11.90;;
43861;SDS011;29510;52.140;5.034;2022-11-21T03:09:09;19.25;;;11.70;;
43861;SDS011;29510;52.140;5.034;2022-11-21T03:19:12;24.17;;;11.50;;
43861;SDS011;29510;52.140;5.034;2022-11-21T03:29:13;30.95;;;11.18;;
43861;SDS011;29510;52.140;5.034;2022-11-21T03:39:14;33.63;;;15.45;;
43861;SDS011;29510;52.140;5.034;2022-11-21T03:49:15;21.52;;;13.48;;
43861;SDS011;29510;52.140;5.034;2022-11-21T03:59:16;34.83;;;15.65;;
43861;SDS011;29510;52.140;5.034;2022-11-21T04:09:17;37.35;;;16.23;;
43861;SDS011;29510;52.140;5.034;2022-11-21T04:19:18;35.85;;;16.88;;
43861;SDS011;29510;52.140;5.034;2022-11-21T04:29:19;35.22;;;17.33;;
43861;SDS011;29510;52.140;5.034;2022-11-21T04:39:20;62.97;;;20.52;;
43861;SDS011;29510;52.140;5.034;2022-11-21T04:49:21;37.72;;;18.52;;
43861;SDS011;29510;52.140;5.034;2022-11-21T04:59:22;66.82;;;24.85;;
43861;SDS011;29510;52.140;5.034;2022-11-21T05:09:23;30.23;;;17.63;;
43861;SDS011;29510;52.140;5.034;2022-11-21T05:19:24;64.03;;;22.05;;
43861;SDS011;29510;52.140;5.034;2022-11-21T05:29:25;31.98;;;18.70;;
43861;SDS011;29510;52.140;5.034;2022-11-21T05:39:26;40.30;;;20.80;;
43861;SDS011;29510;52.140;5.034;2022-11-21T05:49:27;48.58;;;23.17;;
43861;SDS011;29510;52.140;5.034;2022-11-21T05:59:28;47.95;;;23.15;;
43861;SDS011;29510;52.140;5.034;2022-11-21T06:09:29;43.88;;;18.95;;
43861;SDS011;29510;52.140;5.034;2022-11-21T06:19:30;52.33;;;22.75;;
43861;SDS011;29510;52.140;5.034;2022-11-21T06:29:31;37.88;;;20.90;;
43861;SDS011;29510;52.140;5.034;2022-11-21T06:39:32;49.65;;;18.73;;
43861;SDS011;29510;52.140;5.034;2022-11-21T06:49:33;31.73;;;17.48;;
43861;SDS011;29510;52.140;5.034;2022-11-21T06:59:34;28.52;;;16.50;;
43861;SDS011;29510;52.140;5.034;2022-11-21T07:09:35;30.85;;;15.07;;
43861;SDS011;29510;52.140;5.034;2022-11-21T07:19:36;23.60;;;15.35;;
43861;SDS011;29510;52.140;5.034;2022-11-21T07:29:38;26.40;;;13.70;;
43861;SDS011;29510;52.140;5.034;2022-11-21T07:39:39;29.83;;;13.77;;
43861;SDS011;29510;52.140;5.034;2022-11-21T07:49:40;38.83;;;14.60;;
43861;SDS011;29510;52.140;5.034;2022-11-21T07:59:41;29.75;;;18.02;;
43861;SDS011;29510;52.140;5.034;2022-11-21T08:09:42;34.90;;;16.98;;
43861;SDS011;29510;52.140;5.034;2022-11-21T08:19:43;36.22;;;16.50;;
43861;SDS011;29510;52.140;5.034;2022-11-21T08:29:44;27.63;;;15.23;;
43861;SDS011;29510;52.140;5.034;2022-11-21T08:39:45;38.78;;;12.60;;
43861;SDS011;29510;52.140;5.034;2022-11-21T08:49:46;24.08;;;14.65;;
43861;SDS011;29510;52.140;5.034;2022-11-21T08:59:47;26.75;;;15.52;;
43861;SDS011;29510;52.140;5.034;2022-11-21T09:09:48;29.65;;;14.57;;
43861;SDS011;29510;52.140;5.034;2022-11-21T09:19:49;27.08;;;16.17;;
43861;SDS011;29510;52.140;5.034;2022-11-21T09:29:50;25.52;;;14.50;;
43861;SDS011;29510;52.140;5.034;2022-11-21T09:39:51;28.30;;;14.32;;
43861;SDS011;29510;52.140;5.034;2022-11-21T09:50:40;24.05;;;13.85;;
43861;SDS011;29510;52.140;5.034;2022-11-21T10:00:24;29.67;;;14.32;;
43861;SDS011;29510;52.140;5.034;2022-11-21T10:30:43;28.27;;;15.00;;
43861;SDS011;29510;52.140;5.034;2022-11-21T10:40:49;29.33;;;15.02;;
43861;SDS011;29510;52.140;5.034;2022-11-21T10:51:09;19.63;;;11.38;;
43861;SDS011;29510;52.140;5.034;2022-11-21T11:11:27;17.33;;;8.85;;
43861;SDS011;29510;52.140;5.034;2022-11-21T11:31:43;13.18;;;6.45;;
43861;SDS011;29510;52.140;5.034;2022-11-21T11:52:31;10.33;;;3.27;;
43861;SDS011;29510;52.140;5.034;2022-11-21T12:02:57;4.78;;;2.45;;
43861;SDS011;29510;52.140;5.034;2022-11-21T12:13:26;2.80;;;1.35;;
43861;SDS011;29510;52.140;5.034;2022-11-21T12:33:52;2.27;;;0.80;;
43861;SDS011;29510;52.140;5.034;2022-11-21T13:04:42;4.43;;;1.37;;
43861;SDS011;29510;52.140;5.034;2022-11-21T13:14:49;2.70;;;1.10;;
43861;SDS011;29510;52.140;5.034;2022-11-21T13:25:10;3.33;;;1.50;;
43861;SDS011;29510;52.140;5.034;2022-11-21T13:45:52;2.00;;;1.20;;
43861;SDS011;29510;52.140;5.034;2022-11-21T13:56:01;1.90;;;0.73;;
43861;SDS011;29510;52.140;5.034;2022-11-21T14:06:32;6.00;;;2.55;;
43861;SDS011;29510;52.140;5.034;2022-11-21T14:16:35;2.92;;;1.30;;
43861;SDS011;29510;52.140;5.034;2022-11-21T14:26:47;4.20;;;2.67;;
43861;SDS011;29510;52.140;5.034;2022-11-21T14:36:50;6.05;;;1.98;;
43861;SDS011;29510;52.140;5.034;2022-11-21T14:47:01;6.30;;;2.72;;
43861;SDS011;29510;52.140;5.034;2022-11-21T14:57:08;3.17;;;1.50;;
43861;SDS011;29510;52.140;5.034;2022-11-21T15:17:27;3.95;;;1.65;;
43861;SDS011;29510;52.140;5.034;2022-11-21T15:27:30;10.10;;;2.65;;
43861;SDS011;29510;52.140;5.034;2022-11-21T15:37:32;6.00;;;1.95;;
43861;SDS011;29510;52.140;5.034;2022-11-21T15:47:33;4.57;;;2.33;;
43861;SDS011;29510;52.140;5.034;2022-11-21T15:57:34;4.70;;;1.75;;
43861;SDS011;29510;52.140;5.034;2022-11-21T16:07:35;4.03;;;2.17;;
43861;SDS011;29510;52.140;5.034;2022-11-21T16:17:36;3.47;;;1.60;;
43861;SDS011;29510;52.140;5.034;2022-11-21T16:27:38;4.80;;;2.47;;
43861;SDS011;29510;52.140;5.034;2022-11-21T16:37:39;6.45;;;2.30;;
43861;SDS011;29510;52.140;5.034;2022-11-21T16:47:40;3.10;;;2.22;;
43861;SDS011;29510;52.140;5.034;2022-11-21T16:57:41;2.58;;;1.10;;
43861;SDS011;29510;52.140;5.034;2022-11-21T17:07:43;3.65;;;2.20;;
43861;SDS011;29510;52.140;5.034;2022-11-21T17:17:44;3.00;;;1.60;;
43861;SDS011;29510;52.140;5.034;2022-11-21T17:27:45;4.15;;;1.60;;
43861;SDS011;29510;52.140;5.034;2022-11-21T17:37:46;3.30;;;1.58;;
43861;SDS011;29510;52.140;5.034;2022-11-21T17:47:47;2.63;;;1.50;;
43861;SDS011;29510;52.140;5.034;2022-11-21T17:57:48;6.50;;;3.45;;
43861;SDS011;29510;52.140;5.034;2022-11-21T18:07:49;4.20;;;2.13;;
43861;SDS011;29510;52.140;5.034;2022-11-21T18:17:50;4.05;;;2.10;;
43861;SDS011;29510;52.140;5.034;2022-11-21T18:27:51;4.45;;;2.58;;
43861;SDS011;29510;52.140;5.034;2022-11-21T18:37:52;6.65;;;1.98;;
43861;SDS011;29510;52.140;5.034;2022-11-21T18:47:53;4.25;;;1.48;;
43861;SDS011;29510;52.140;5.034;2022-11-21T18:57:54;4.53;;;1.83;;
43861;SDS011;29510;52.140;5.034;2022-11-21T19:07:55;3.90;;;1.58;;
43861;SDS011;29510;52.140;5.034;2022-11-21T19:17:56;5.97;;;1.60;;
43861;SDS011;29510;52.140;5.034;2022-11-21T19:27:58;2.97;;;1.63;;
43861;SDS011;29510;52.140;5.034;2022-11-21T19:38:00;4.45;;;1.60;;
43861;SDS011;29510;52.140;5.034;2022-11-21T19:48:01;6.53;;;2.63;;
43861;SDS011;29510;52.140;5.034;2022-11-21T19:58:02;6.18;;;3.13;;
43861;SDS011;29510;52.140;5.034;2022-11-21T20:08:03;4.03;;;1.63;;
43861;SDS011;29510;52.140;5.034;2022-11-21T20:18:04;8.80;;;2.08;;
43861;SDS011;29510;52.140;5.034;2022-11-21T20:28:05;5.57;;;2.58;;
43861;SDS011;29510;52.140;5.034;2022-11-21T20:38:06;7.70;;;2.47;;
43861;SDS011;29510;52.140;5.034;2022-11-21T20:48:07;5.18;;;2.17;;
43861;SDS011;29510;52.140;5.034;2022-11-21T20:58:08;5.85;;;2.40;;
43861;SDS011;29510;52.140;5.034;2022-11-21T21:08:09;4.60;;;2.25;;
43861;SDS011;29510;52.140;5.034;2022-11-21T21:18:10;6.43;;;2.65;;
43861;SDS011;29510;52.140;5.034;2022-11-21T21:28:11;4.82;;;1.90;;
43861;SDS011;29510;52.140;5.034;2022-11-21T21:38:12;3.78;;;1.52;;
43861;SDS011;29510;52.140;5.034;2022-11-21T21:48:13;6.80;;;3.45;;
43861;SDS011;29510;52.140;5.034;2022-11-21T21:58:14;4.15;;;2.38;;
43861;SDS011;29510;52.140;5.034;2022-11-21T22:08:15;11.40;;;2.72;;
43861;SDS011;29510;52.140;5.034;2022-11-21T22:18:17;3.60;;;2.10;;
43861;SDS011;29510;52.140;5.034;2022-11-21T22:28:17;8.63;;;2.10;;
43861;SDS011;29510;52.140;5.034;2022-11-21T22:38:20;8.75;;;2.55;;
43861;SDS011;29510;52.140;5.034;2022-11-21T22:48:21;8.75;;;2.38;;
43861;SDS011;29510;52.140;5.034;2022-11-21T22:58:22;4.22;;;2.53;;
43861;SDS011;29510;52.140;5.034;2022-11-21T23:08:23;6.32;;;2.30;;
43861;SDS011;29510;52.140;5.034;2022-11-21T23:18:24;7.97;;;2.45;;
43861;SDS011;29510;52.140;5.034;2022-11-21T23:28:25;6.97;;;3.05;;
43861;SDS011;29510;52.140;5.034;2022-11-21T23:38:27;5.40;;;2.67;;
43861;SDS011;29510;52.140;5.034;2022-11-21T23:48:28;6.80;;;2.83;;
43861;SDS011;29510;52.140;5.034;2022-11-21T23:58:29;5.38;;;3.08;;
